Union Bridge, MD (21791)

4:47 AM EDT on August 29, 2015 (GMT -0400)
Union Bridge | | Change Station
CLOSE
Current Station
Personal Weather Station
Location: Union Bridge, MD
Elevation: 420 ft
Nearby Weather Stations

Elev 420 ft 39.57 °N, 77.17 °W | Updated 53 seconds ago

Partly Cloudy
Partly Cloudy
57.6 °F
Feels Like 57.6 °F
N
1.1
Wind Variable Wind from West

Today
High -- | Low -- °F
--% Chance of Precip.
Yesterday
High -- | Low -- °F
Precip. -- in
6:33 AM 7:44 PM
Full, 100% visible
Pressure 30.20 in
Visibility 7.0 miles
Clouds Clear
Dew Point 57 °F
Humidity 98%
Rainfall 0.00 in
Snow Depth Not available.
UV 0 out of 12
Pollen 9.60 out of 12
Air Quality Not available.
Flu Activity Not available.
METAR KDMW 290825Z AUTO 00000KT 7SM CLR 18/14 A3020 RMK AO2
Pressure 30.20 in
Visibility 7.0 miles
Clouds Clear
Dew Point 57 °F
Humidity 98%
Rainfall 0.00 in
Snow Depth Not available.
UV 0 out of 12
Pollen 9.60 out of 12
Air Quality Not available.
Flu Activity Not available.
METAR KDMW 290825Z AUTO 00000KT 7SM CLR 18/14 A3020 RMK AO2

10-Day Weather Forecast

×

Almanac

Astronomy

Aug. 29, 2015 Rise Set
Actual Time
Civil Twilight
Nautical Twilight
Astronomical Twilight
Moon
Length of Visible Light
Length of Day
Tomorrow will be .
, % of the Moon is Illuminated

Today's Extremes

State Highs State Lows

Community

WunderPhotos

Upload Photos

1,850,634 photos uploaded!

WunderBlogs® & News

Nearby

Air Quality

  Air Quality AQ Index Pollutant
Not available.

Snow Depth

Station Depth Elevation

Earthquake Activity

City Distance Mag. Time & Date
Minimum magnitude displayed is 2.5.

Coastal Water Temperatures

Place Temperature

Stations

Nearby Weather Stations

Station Location Temp. Windchill Dew Point Humidity Wind Precip. Elev Updated Type